Palisades, WA (98845)

8:35 PM PDT on May 23, 2015 (GMT -0700)
Ephrata Mike | | Change Station
CLOSE
Current Station
Personal Weather Station
Location: Ephrata, WA
Elevation: 1260 ft
Nearby Weather Stations

Elev 1260 ft 47.35 °N, 119.53 °W | Updated 26 seconds ago

Partly Cloudy
Partly Cloudy
75.7 °F
Feels Like 78 °F
N
2.0
Wind Variable Wind from SSW
Gusts 2.0 mph

Today
High -- | Low -- °F
--% Chance of Precip.
Yesterday
High -- | Low -- °F
Precip. -- in
5:13 AM 8:38 PM
Waxing Crescent, 35% visible
Pressure 29.90 in
Visibility 10.0 miles
Clouds Clear
Heat Index 78 °F
Dew Point 48 °F
Humidity 38%
Rainfall 0.00 in
Snow Depth Not available.
UV 0 out of 12
Pollen 8.00 out of 12
Air Quality Not available.
Flu Activity Sporadic
METAR KEPH 240253Z AUTO 23004KT 10SM CLR 26/08 A2991 RMK AO2 SLP123 T02560083 55004

More Conditions Fewer Conditions

Pressure 29.90 in
Visibility 10.0 miles
Clouds Clear
Heat Index 78 °F
Dew Point 48 °F
Humidity 38%
Rainfall 0.00 in
Snow Depth Not available.
UV 0 out of 12
Pollen 8.00 out of 12
Air Quality Not available.
Flu Activity Sporadic
METAR KEPH 240253Z AUTO 23004KT 10SM CLR 26/08 A2991 RMK AO2 SLP123 T02560083 55004

More Conditions Fewer Conditions

10-Day Weather Forecast

Almanac

Astronomy

May. 23, 2015 Rise Set
Actual Time
Civil Twilight
Nautical Twilight
Astronomical Twilight
Moon
Length of Visible Light
Length of Day
Tomorrow will be .
, % of the Moon is Illuminated

Today's Extremes

State Highs State Lows

Community

WunderPhotos

Upload Photos

1,823,678 photos uploaded!

WunderBlogs® & News

Nearby

Air Quality

  Air Quality AQ Index Pollutant
Not available.

Snow Depth

Station Depth Elevation

Earthquake Activity

City Distance Mag. Time & Date
Minimum magnitude displayed is 2.5.

Coastal Water Temperatures

Place Temperature

Stations

Nearby Weather Stations

Station Location Temp. Windchill Dew Point Humidity Wind Precip. Elev Updated Type